sensor_id;sensor_type;location;lat;lon;timestamp;temperature;humidity
17831;DHT22;9040;51.332;12.406;2022-07-23T00:02:24;22.10;99.90
17831;DHT22;9040;51.332;12.406;2022-07-23T00:04:51;22.10;99.90
17831;DHT22;9040;51.332;12.406;2022-07-23T00:07:18;22.10;99.90
17831;DHT22;9040;51.332;12.406;2022-07-23T00:09:46;22.20;99.90
17831;DHT22;9040;51.332;12.406;2022-07-23T00:12:13;22.20;99.90
17831;DHT22;9040;51.332;12.406;2022-07-23T00:14:40;22.20;99.90
17831;DHT22;9040;51.332;12.406;2022-07-23T00:17:07;22.20;99.90
17831;DHT22;9040;51.332;12.406;2022-07-23T00:19:34;22.20;99.90
17831;DHT22;9040;51.332;12.406;2022-07-23T00:22:01;22.10;99.90
17831;DHT22;9040;51.332;12.406;2022-07-23T00:24:28;22.10;99.90
17831;DHT22;9040;51.332;12.406;2022-07-23T00:26:56;22.00;99.90
17831;DHT22;9040;51.332;12.406;2022-07-23T00:29:23;22.00;99.90
17831;DHT22;9040;51.332;12.406;2022-07-23T00:31:50;22.00;99.90
17831;DHT22;9040;51.332;12.406;2022-07-23T00:34:17;22.00;99.90
17831;DHT22;9040;51.332;12.406;2022-07-23T00:36:44;22.00;99.90
17831;DHT22;9040;51.332;12.406;2022-07-23T00:39:10;22.00;99.90
17831;DHT22;9040;51.332;12.406;2022-07-23T00:41:37;22.00;99.90
17831;DHT22;9040;51.332;12.406;2022-07-23T00:44:22;22.00;99.90
17831;DHT22;9040;51.332;12.406;2022-07-23T00:46:52;21.90;99.90
17831;DHT22;9040;51.332;12.406;2022-07-23T00:49:19;22.00;99.90
17831;DHT22;9040;51.332;12.406;2022-07-23T00:51:47;22.00;99.90
17831;DHT22;9040;51.332;12.406;2022-07-23T00:54:14;22.00;99.90
17831;DHT22;9040;51.332;12.406;2022-07-23T00:56:43;22.00;99.90
17831;DHT22;9040;51.332;12.406;2022-07-23T00:59:10;21.90;99.90
17831;DHT22;9040;51.332;12.406;2022-07-23T01:01:38;21.90;99.90
17831;DHT22;9040;51.332;12.406;2022-07-23T01:04:05;21.90;99.90
17831;DHT22;9040;51.332;12.406;2022-07-23T01:06:35;21.90;99.90
17831;DHT22;9040;51.332;12.406;2022-07-23T01:09:03;21.80;99.90
17831;DHT22;9040;51.332;12.406;2022-07-23T01:11:33;21.80;99.90
17831;DHT22;9040;51.332;12.406;2022-07-23T01:14:08;21.80;99.90
17831;DHT22;9040;51.332;12.406;2022-07-23T01:16:35;21.70;99.90
17831;DHT22;9040;51.332;12.406;2022-07-23T01:19:03;21.70;99.90
17831;DHT22;9040;51.332;12.406;2022-07-23T01:21:34;21.70;99.90
17831;DHT22;9040;51.332;12.406;2022-07-23T01:24:04;21.70;99.90
17831;DHT22;9040;51.332;12.406;2022-07-23T01:26:31;21.70;99.90
17831;DHT22;9040;51.332;12.406;2022-07-23T01:28:58;21.70;99.90
17831;DHT22;9040;51.332;12.406;2022-07-23T01:31:25;21.60;99.90
17831;DHT22;9040;51.332;12.406;2022-07-23T01:33:52;21.60;99.90
17831;DHT22;9040;51.332;12.406;2022-07-23T01:36:19;21.60;99.90
17831;DHT22;9040;51.332;12.406;2022-07-23T01:38:47;21.70;99.90
17831;DHT22;9040;51.332;12.406;2022-07-23T01:41:16;21.70;99.90
17831;DHT22;9040;51.332;12.406;2022-07-23T01:43:42;21.70;99.90
17831;DHT22;9040;51.332;12.406;2022-07-23T01:46:09;21.70;99.90
17831;DHT22;9040;51.332;12.406;2022-07-23T01:48:36;21.60;99.90
17831;DHT22;9040;51.332;12.406;2022-07-23T01:51:03;21.60;99.90
17831;DHT22;9040;51.332;12.406;2022-07-23T01:53:30;21.60;99.90
17831;DHT22;9040;51.332;12.406;2022-07-23T01:55:57;21.60;99.90
17831;DHT22;9040;51.332;12.406;2022-07-23T01:58:26;21.50;99.90
17831;DHT22;9040;51.332;12.406;2022-07-23T02:00:53;21.50;99.90
17831;DHT22;9040;51.332;12.406;2022-07-23T02:03:20;21.40;99.90
17831;DHT22;9040;51.332;12.406;2022-07-23T02:05:46;21.40;99.90
17831;DHT22;9040;51.332;12.406;2022-07-23T02:08:13;21.40;99.90
17831;DHT22;9040;51.332;12.406;2022-07-23T02:10:40;21.40;99.90
17831;DHT22;9040;51.332;12.406;2022-07-23T02:13:07;21.40;99.90
17831;DHT22;9040;51.332;12.406;2022-07-23T02:15:35;21.30;99.90
17831;DHT22;9040;51.332;12.406;2022-07-23T02:18:02;21.20;99.90
17831;DHT22;9040;51.332;12.406;2022-07-23T02:20:29;21.20;99.90
17831;DHT22;9040;51.332;12.406;2022-07-23T02:22:56;21.20;99.90
17831;DHT22;9040;51.332;12.406;2022-07-23T02:25:23;21.10;99.90
17831;DHT22;9040;51.332;12.406;2022-07-23T02:27:50;20.90;99.90
17831;DHT22;9040;51.332;12.406;2022-07-23T02:30:17;20.90;99.90
17831;DHT22;9040;51.332;12.406;2022-07-23T02:32:45;20.90;99.90
17831;DHT22;9040;51.332;12.406;2022-07-23T02:35:12;20.90;99.90
17831;DHT22;9040;51.332;12.406;2022-07-23T02:37:39;20.70;99.90
17831;DHT22;9040;51.332;12.406;2022-07-23T02:40:07;20.60;99.90
17831;DHT22;9040;51.332;12.406;2022-07-23T02:42:34;20.60;99.90
17831;DHT22;9040;51.332;12.406;2022-07-23T02:45:00;20.60;99.90
17831;DHT22;9040;51.332;12.406;2022-07-23T02:47:27;20.60;99.90
17831;DHT22;9040;51.332;12.406;2022-07-23T02:49:56;20.50;99.90
17831;DHT22;9040;51.332;12.406;2022-07-23T02:52:22;20.50;99.90
17831;DHT22;9040;51.332;12.406;2022-07-23T02:54:49;20.50;99.90
17831;DHT22;9040;51.332;12.406;2022-07-23T02:57:16;20.40;99.90
17831;DHT22;9040;51.332;12.406;2022-07-23T02:59:43;20.40;99.90
17831;DHT22;9040;51.332;12.406;2022-07-23T03:02:10;20.40;99.90
17831;DHT22;9040;51.332;12.406;2022-07-23T03:04:37;20.40;99.90
17831;DHT22;9040;51.332;12.406;2022-07-23T03:07:05;20.40;99.90
17831;DHT22;9040;51.332;12.406;2022-07-23T03:09:32;20.40;99.90
17831;DHT22;9040;51.332;12.406;2022-07-23T03:11:58;20.40;99.90
17831;DHT22;9040;51.332;12.406;2022-07-23T03:14:25;20.50;99.90
17831;DHT22;9040;51.332;12.406;2022-07-23T03:16:53;20.50;99.90
17831;DHT22;9040;51.332;12.406;2022-07-23T03:19:20;20.50;99.90
17831;DHT22;9040;51.332;12.406;2022-07-23T03:21:47;20.50;99.90
17831;DHT22;9040;51.332;12.406;2022-07-23T03:24:15;20.50;99.90
17831;DHT22;9040;51.332;12.406;2022-07-23T03:26:43;20.60;99.90
17831;DHT22;9040;51.332;12.406;2022-07-23T03:29:10;20.60;99.90
17831;DHT22;9040;51.332;12.406;2022-07-23T03:31:37;20.60;99.90
17831;DHT22;9040;51.332;12.406;2022-07-23T03:34:04;20.60;99.90
17831;DHT22;9040;51.332;12.406;2022-07-23T03:36:31;20.60;99.90
17831;DHT22;9040;51.332;12.406;2022-07-23T03:38:57;20.60;99.90
17831;DHT22;9040;51.332;12.406;2022-07-23T03:41:26;20.60;99.90
17831;DHT22;9040;51.332;12.406;2022-07-23T03:43:52;20.60;99.90
17831;DHT22;9040;51.332;12.406;2022-07-23T03:46:19;20.70;99.90
17831;DHT22;9040;51.332;12.406;2022-07-23T03:48:46;20.60;99.90
17831;DHT22;9040;51.332;12.406;2022-07-23T03:51:13;20.60;99.90
17831;DHT22;9040;51.332;12.406;2022-07-23T03:53:40;20.60;99.90
17831;DHT22;9040;51.332;12.406;2022-07-23T03:56:07;20.50;99.90
17831;DHT22;9040;51.332;12.406;2022-07-23T03:58:35;20.40;99.90
17831;DHT22;9040;51.332;12.406;2022-07-23T04:01:02;20.40;99.90
17831;DHT22;9040;51.332;12.406;2022-07-23T04:03:29;20.40;99.90
17831;DHT22;9040;51.332;12.406;2022-07-23T04:05:56;20.40;99.90
17831;DHT22;9040;51.332;12.406;2022-07-23T04:08:22;20.40;99.90
17831;DHT22;9040;51.332;12.406;2022-07-23T04:10:50;20.40;99.90
17831;DHT22;9040;51.332;12.406;2022-07-23T04:13:18;20.30;99.90
17831;DHT22;9040;51.332;12.406;2022-07-23T04:15:46;20.30;99.90
17831;DHT22;9040;51.332;12.406;2022-07-23T04:18:13;20.10;99.90
17831;DHT22;9040;51.332;12.406;2022-07-23T04:20:42;19.80;99.90
17831;DHT22;9040;51.332;12.406;2022-07-23T04:23:09;19.60;99.90
17831;DHT22;9040;51.332;12.406;2022-07-23T04:25:36;19.50;99.90
17831;DHT22;9040;51.332;12.406;2022-07-23T04:28:03;19.40;99.90
17831;DHT22;9040;51.332;12.406;2022-07-23T04:30:30;19.20;99.90
17831;DHT22;9040;51.332;12.406;2022-07-23T04:32:58;19.20;99.90
17831;DHT22;9040;51.332;12.406;2022-07-23T04:35:25;19.20;99.90
17831;DHT22;9040;51.332;12.406;2022-07-23T04:37:52;19.30;99.90
17831;DHT22;9040;51.332;12.406;2022-07-23T04:40:19;19.40;99.90
17831;DHT22;9040;51.332;12.406;2022-07-23T04:42:46;19.40;99.90
17831;DHT22;9040;51.332;12.406;2022-07-23T04:45:13;19.40;99.90
17831;DHT22;9040;51.332;12.406;2022-07-23T04:47:40;19.40;99.90
17831;DHT22;9040;51.332;12.406;2022-07-23T04:50:08;19.50;99.90
17831;DHT22;9040;51.332;12.406;2022-07-23T04:52:35;19.70;99.90
17831;DHT22;9040;51.332;12.406;2022-07-23T04:55:03;19.90;99.90
17831;DHT22;9040;51.332;12.406;2022-07-23T04:57:30;20.00;99.90
17831;DHT22;9040;51.332;12.406;2022-07-23T04:59:57;20.00;99.90
17831;DHT22;9040;51.332;12.406;2022-07-23T05:02:24;20.00;99.90
17831;DHT22;9040;51.332;12.406;2022-07-23T05:04:51;19.90;99.90
17831;DHT22;9040;51.332;12.406;2022-07-23T05:07:19;19.90;99.90
17831;DHT22;9040;51.332;12.406;2022-07-23T05:09:46;19.90;99.90
17831;DHT22;9040;51.332;12.406;2022-07-23T05:12:13;19.90;99.90
17831;DHT22;9040;51.332;12.406;2022-07-23T05:14:40;19.90;99.90
17831;DHT22;9040;51.332;12.406;2022-07-23T05:17:07;19.70;99.90
17831;DHT22;9040;51.332;12.406;2022-07-23T05:19:34;19.50;99.90
17831;DHT22;9040;51.332;12.406;2022-07-23T05:22:01;19.30;99.90
17831;DHT22;9040;51.332;12.406;2022-07-23T05:24:29;19.20;99.90
17831;DHT22;9040;51.332;12.406;2022-07-23T05:26:56;19.20;99.90
17831;DHT22;9040;51.332;12.406;2022-07-23T05:29:23;19.20;99.90
17831;DHT22;9040;51.332;12.406;2022-07-23T05:31:50;19.20;99.90
17831;DHT22;9040;51.332;12.406;2022-07-23T05:34:17;19.20;99.90
17831;DHT22;9040;51.332;12.406;2022-07-23T05:36:44;19.20;99.90
17831;DHT22;9040;51.332;12.406;2022-07-23T05:39:11;19.20;99.90
17831;DHT22;9040;51.332;12.406;2022-07-23T05:41:39;19.10;99.90
17831;DHT22;9040;51.332;12.406;2022-07-23T05:44:06;18.90;99.90
17831;DHT22;9040;51.332;12.406;2022-07-23T05:46:33;18.90;99.90
17831;DHT22;9040;51.332;12.406;2022-07-23T05:49:00;18.90;99.90
17831;DHT22;9040;51.332;12.406;2022-07-23T05:51:26;18.80;99.90
17831;DHT22;9040;51.332;12.406;2022-07-23T05:53:53;18.70;99.90
17831;DHT22;9040;51.332;12.406;2022-07-23T05:56:20;18.60;99.90
17831;DHT22;9040;51.332;12.406;2022-07-23T05:58:48;18.70;99.90
17831;DHT22;9040;51.332;12.406;2022-07-23T06:01:15;18.70;99.90
17831;DHT22;9040;51.332;12.406;2022-07-23T06:03:42;18.70;99.90
17831;DHT22;9040;51.332;12.406;2022-07-23T06:06:09;18.90;99.90
17831;DHT22;9040;51.332;12.406;2022-07-23T06:08:36;18.90;99.90
17831;DHT22;9040;51.332;12.406;2022-07-23T06:11:02;19.20;99.90
17831;DHT22;9040;51.332;12.406;2022-07-23T06:13:29;19.30;99.90
17831;DHT22;9040;51.332;12.406;2022-07-23T06:15:57;19.50;99.90
17831;DHT22;9040;51.332;12.406;2022-07-23T06:18:24;19.70;99.90
17831;DHT22;9040;51.332;12.406;2022-07-23T06:20:51;19.80;99.90
17831;DHT22;9040;51.332;12.406;2022-07-23T06:23:18;19.90;99.90
17831;DHT22;9040;51.332;12.406;2022-07-23T06:25:45;19.90;99.90
17831;DHT22;9040;51.332;12.406;2022-07-23T06:28:12;19.90;99.90
17831;DHT22;9040;51.332;12.406;2022-07-23T06:30:39;19.90;99.90
17831;DHT22;9040;51.332;12.406;2022-07-23T06:33:07;19.90;99.90
17831;DHT22;9040;51.332;12.406;2022-07-23T06:35:35;19.90;99.90
17831;DHT22;9040;51.332;12.406;2022-07-23T06:38:02;19.90;99.90
17831;DHT22;9040;51.332;12.406;2022-07-23T06:40:29;20.00;99.90
17831;DHT22;9040;51.332;12.406;2022-07-23T06:42:55;20.10;99.90
17831;DHT22;9040;51.332;12.406;2022-07-23T06:45:23;20.20;99.90
17831;DHT22;9040;51.332;12.406;2022-07-23T06:47:50;20.30;99.90
17831;DHT22;9040;51.332;12.406;2022-07-23T06:50:18;20.40;99.90
17831;DHT22;9040;51.332;12.406;2022-07-23T06:52:45;20.50;99.90
17831;DHT22;9040;51.332;12.406;2022-07-23T06:55:11;20.50;99.90
17831;DHT22;9040;51.332;12.406;2022-07-23T06:57:38;20.50;99.90
17831;DHT22;9040;51.332;12.406;2022-07-23T07:00:06;20.40;99.90
17831;DHT22;9040;51.332;12.406;2022-07-23T07:02:33;20.40;99.90
17831;DHT22;9040;51.332;12.406;2022-07-23T07:05:00;20.40;99.90
17831;DHT22;9040;51.332;12.406;2022-07-23T07:07:28;20.30;99.90
17831;DHT22;9040;51.332;12.406;2022-07-23T07:09:55;20.30;99.90
17831;DHT22;9040;51.332;12.406;2022-07-23T07:12:22;20.30;99.90
17831;DHT22;9040;51.332;12.406;2022-07-23T07:14:49;20.30;99.90
17831;DHT22;9040;51.332;12.406;2022-07-23T07:17:15;20.30;99.90
17831;DHT22;9040;51.332;12.406;2022-07-23T07:19:42;20.30;99.90
17831;DHT22;9040;51.332;12.406;2022-07-23T07:22:09;20.40;99.90
17831;DHT22;9040;51.332;12.406;2022-07-23T07:24:37;20.30;99.90
17831;DHT22;9040;51.332;12.406;2022-07-23T07:27:04;20.20;99.90
17831;DHT22;9040;51.332;12.406;2022-07-23T07:29:31;20.20;99.90
17831;DHT22;9040;51.332;12.406;2022-07-23T07:31:58;20.10;99.90
17831;DHT22;9040;51.332;12.406;2022-07-23T07:34:25;20.10;99.90
17831;DHT22;9040;51.332;12.406;2022-07-23T07:36:52;20.20;99.90
17831;DHT22;9040;51.332;12.406;2022-07-23T07:39:19;20.30;99.90
17831;DHT22;9040;51.332;12.406;2022-07-23T07:41:47;20.30;99.90
17831;DHT22;9040;51.332;12.406;2022-07-23T07:44:14;20.30;99.90
17831;DHT22;9040;51.332;12.406;2022-07-23T07:46:42;20.30;99.90
17831;DHT22;9040;51.332;12.406;2022-07-23T07:49:09;20.20;99.90
17831;DHT22;9040;51.332;12.406;2022-07-23T07:51:35;20.20;99.90
17831;DHT22;9040;51.332;12.406;2022-07-23T07:54:02;20.20;99.90
17831;DHT22;9040;51.332;12.406;2022-07-23T07:56:29;20.10;99.90
17831;DHT22;9040;51.332;12.406;2022-07-23T07:58:58;20.00;99.90
17831;DHT22;9040;51.332;12.406;2022-07-23T08:01:26;19.90;99.90
17831;DHT22;9040;51.332;12.406;2022-07-23T08:03:52;19.90;99.90
17831;DHT22;9040;51.332;12.406;2022-07-23T08:06:19;20.00;99.90
17831;DHT22;9040;51.332;12.406;2022-07-23T08:08:46;20.00;99.90
17831;DHT22;9040;51.332;12.406;2022-07-23T08:11:13;19.90;99.90
17831;DHT22;9040;51.332;12.406;2022-07-23T08:13:40;19.90;99.90
17831;DHT22;9040;51.332;12.406;2022-07-23T08:16:11;20.00;99.90
17831;DHT22;9040;51.332;12.406;2022-07-23T08:18:38;20.20;99.90
17831;DHT22;9040;51.332;12.406;2022-07-23T08:21:04;20.30;99.90
17831;DHT22;9040;51.332;12.406;2022-07-23T08:23:32;20.30;99.90
17831;DHT22;9040;51.332;12.406;2022-07-23T08:25:58;20.30;99.90
17831;DHT22;9040;51.332;12.406;2022-07-23T08:28:26;20.20;99.90
17831;DHT22;9040;51.332;12.406;2022-07-23T08:30:53;20.10;99.90
17831;DHT22;9040;51.332;12.406;2022-07-23T08:33:21;20.20;99.90
17831;DHT22;9040;51.332;12.406;2022-07-23T08:35:49;20.30;99.90
17831;DHT22;9040;51.332;12.406;2022-07-23T08:38:20;20.30;99.90
17831;DHT22;9040;51.332;12.406;2022-07-23T08:40:48;20.40;99.90
17831;DHT22;9040;51.332;12.406;2022-07-23T08:43:16;20.40;99.90
17831;DHT22;9040;51.332;12.406;2022-07-23T08:45:45;20.30;99.90
17831;DHT22;9040;51.332;12.406;2022-07-23T08:48:14;20.30;99.90
17831;DHT22;9040;51.332;12.406;2022-07-23T08:50:44;20.20;99.90
17831;DHT22;9040;51.332;12.406;2022-07-23T08:53:12;20.30;99.90
17831;DHT22;9040;51.332;12.406;2022-07-23T08:55:39;20.20;99.90
17831;DHT22;9040;51.332;12.406;2022-07-23T08:58:06;20.30;99.90
17831;DHT22;9040;51.332;12.406;2022-07-23T09:00:33;20.30;99.90
17831;DHT22;9040;51.332;12.406;2022-07-23T09:03:00;20.50;99.90
17831;DHT22;9040;51.332;12.406;2022-07-23T09:05:27;20.50;99.90
17831;DHT22;9040;51.332;12.406;2022-07-23T09:08:09;20.80;99.90
17831;DHT22;9040;51.332;12.406;2022-07-23T09:10:51;20.80;99.90
17831;DHT22;9040;51.332;12.406;2022-07-23T09:13:29;20.80;99.90
17831;DHT22;9040;51.332;12.406;2022-07-23T09:15:59;20.70;99.90
17831;DHT22;9040;51.332;12.406;2022-07-23T09:18:44;20.70;99.90
17831;DHT22;9040;51.332;12.406;2022-07-23T09:21:13;20.60;99.90
17831;DHT22;9040;51.332;12.406;2022-07-23T09:23:44;20.50;99.90
17831;DHT22;9040;51.332;12.406;2022-07-23T09:28:51;20.30;99.90
17831;DHT22;9040;51.332;12.406;2022-07-23T09:31:19;20.20;99.90
17831;DHT22;9040;51.332;12.406;2022-07-23T09:33:46;20.00;99.90
17831;DHT22;9040;51.332;12.406;2022-07-23T09:36:13;19.90;99.90
17831;DHT22;9040;51.332;12.406;2022-07-23T09:38:49;19.90;99.90
17831;DHT22;9040;51.332;12.406;2022-07-23T09:41:17;20.00;99.90
17831;DHT22;9040;51.332;12.406;2022-07-23T09:43:44;20.00;99.90
17831;DHT22;9040;51.332;12.406;2022-07-23T09:46:18;20.00;99.90
17831;DHT22;9040;51.332;12.406;2022-07-23T09:48:45;20.00;99.90
17831;DHT22;9040;51.332;12.406;2022-07-23T09:51:12;20.20;99.90
17831;DHT22;9040;51.332;12.406;2022-07-23T09:53:40;20.30;99.90
17831;DHT22;9040;51.332;12.406;2022-07-23T09:56:09;20.40;99.90
17831;DHT22;9040;51.332;12.406;2022-07-23T09:58:40;20.40;99.90
17831;DHT22;9040;51.332;12.406;2022-07-23T10:01:13;20.50;99.90
17831;DHT22;9040;51.332;12.406;2022-07-23T10:03:41;20.50;99.90
17831;DHT22;9040;51.332;12.406;2022-07-23T10:06:08;20.50;99.90
17831;DHT22;9040;51.332;12.406;2022-07-23T10:08:36;20.30;99.90
17831;DHT22;9040;51.332;12.406;2022-07-23T10:11:09;20.30;99.90
17831;DHT22;9040;51.332;12.406;2022-07-23T10:13:37;20.20;99.90
17831;DHT22;9040;51.332;12.406;2022-07-23T10:16:19;20.10;99.90
17831;DHT22;9040;51.332;12.406;2022-07-23T10:18:46;20.00;99.90
17831;DHT22;9040;51.332;12.406;2022-07-23T10:21:18;20.00;99.90
17831;DHT22;9040;51.332;12.406;2022-07-23T10:23:51;20.00;99.90
17831;DHT22;9040;51.332;12.406;2022-07-23T10:26:31;20.10;99.90
17831;DHT22;9040;51.332;12.406;2022-07-23T10:29:08;20.30;99.90
17831;DHT22;9040;51.332;12.406;2022-07-23T10:31:46;20.30;99.90
17831;DHT22;9040;51.332;12.406;2022-07-23T10:34:21;20.20;99.90
17831;DHT22;9040;51.332;12.406;2022-07-23T10:36:52;20.20;99.90
17831;DHT22;9040;51.332;12.406;2022-07-23T10:39:25;20.30;99.90
17831;DHT22;9040;51.332;12.406;2022-07-23T10:42:07;20.30;99.90
17831;DHT22;9040;51.332;12.406;2022-07-23T10:44:39;20.30;99.90
17831;DHT22;9040;51.332;12.406;2022-07-23T10:47:08;20.30;99.90
17831;DHT22;9040;51.332;12.406;2022-07-23T10:49:50;20.20;99.90
17831;DHT22;9040;51.332;12.406;2022-07-23T10:52:25;20.30;99.90
17831;DHT22;9040;51.332;12.406;2022-07-23T10:54:54;20.40;99.90
17831;DHT22;9040;51.332;12.406;2022-07-23T10:57:23;20.40;99.90
17831;DHT22;9040;51.332;12.406;2022-07-23T11:00:15;20.50;99.90
17831;DHT22;9040;51.332;12.406;2022-07-23T11:02:44;20.60;99.90
17831;DHT22;9040;51.332;12.406;2022-07-23T11:05:13;20.70;99.90
17831;DHT22;9040;51.332;12.406;2022-07-23T11:08:13;20.80;99.90
17831;DHT22;9040;51.332;12.406;2022-07-23T11:10:43;20.90;99.90
17831;DHT22;9040;51.332;12.406;2022-07-23T11:13:40;21.00;99.90
17831;DHT22;9040;51.332;12.406;2022-07-23T11:19:03;20.90;99.90
17831;DHT22;9040;51.332;12.406;2022-07-23T11:21:57;20.90;99.90
17831;DHT22;9040;51.332;12.406;2022-07-23T11:24:25;20.80;99.90
17831;DHT22;9040;51.332;12.406;2022-07-23T11:27:01;20.80;99.90
17831;DHT22;9040;51.332;12.406;2022-07-23T11:29:42;20.80;99.90
17831;DHT22;9040;51.332;12.406;2022-07-23T11:32:23;20.70;99.90
17831;DHT22;9040;51.332;12.406;2022-07-23T11:34:51;20.60;99.90
17831;DHT22;9040;51.332;12.406;2022-07-23T11:37:36;20.60;99.90
17831;DHT22;9040;51.332;12.406;2022-07-23T11:40:06;20.70;99.90
17831;DHT22;9040;51.332;12.406;2022-07-23T11:42:35;20.90;99.90
17831;DHT22;9040;51.332;12.406;2022-07-23T11:45:06;20.90;99.90
17831;DHT22;9040;51.332;12.406;2022-07-23T11:47:33;21.10;99.90
17831;DHT22;9040;51.332;12.406;2022-07-23T11:50:03;21.10;99.90
17831;DHT22;9040;51.332;12.406;2022-07-23T11:52:32;21.20;99.90
17831;DHT22;9040;51.332;12.406;2022-07-23T11:55:01;21.50;99.90
17831;DHT22;9040;51.332;12.406;2022-07-23T11:57:29;21.70;99.90
17831;DHT22;9040;51.332;12.406;2022-07-23T11:59:58;21.90;99.90
17831;DHT22;9040;51.332;12.406;2022-07-23T12:02:26;21.90;99.90
17831;DHT22;9040;51.332;12.406;2022-07-23T12:04:53;21.90;99.90
17831;DHT22;9040;51.332;12.406;2022-07-23T12:07:26;22.00;99.90
17831;DHT22;9040;51.332;12.406;2022-07-23T12:09:53;22.00;99.90
17831;DHT22;9040;51.332;12.406;2022-07-23T12:12:21;22.00;99.90
17831;DHT22;9040;51.332;12.406;2022-07-23T12:14:53;22.00;99.90
17831;DHT22;9040;51.332;12.406;2022-07-23T12:17:20;21.90;99.90
17831;DHT22;9040;51.332;12.406;2022-07-23T12:19:49;21.80;99.90
17831;DHT22;9040;51.332;12.406;2022-07-23T12:22:16;21.90;99.90
17831;DHT22;9040;51.332;12.406;2022-07-23T12:24:53;21.80;99.90
17831;DHT22;9040;51.332;12.406;2022-07-23T12:27:21;22.00;99.90
17831;DHT22;9040;51.332;12.406;2022-07-23T12:29:48;22.30;99.90
17831;DHT22;9040;51.332;12.406;2022-07-23T12:32:20;22.70;99.90
17831;DHT22;9040;51.332;12.406;2022-07-23T12:34:50;23.10;99.90
17831;DHT22;9040;51.332;12.406;2022-07-23T12:37:28;23.60;99.90
17831;DHT22;9040;51.332;12.406;2022-07-23T12:39:55;23.50;99.90
17831;DHT22;9040;51.332;12.406;2022-07-23T12:42:22;23.30;99.90
17831;DHT22;9040;51.332;12.406;2022-07-23T12:45:05;23.20;99.90
17831;DHT22;9040;51.332;12.406;2022-07-23T12:47:53;23.40;99.90
17831;DHT22;9040;51.332;12.406;2022-07-23T12:50:43;23.50;99.90
17831;DHT22;9040;51.332;12.406;2022-07-23T12:53:14;23.70;99.90
17831;DHT22;9040;51.332;12.406;2022-07-23T12:55:41;23.70;99.90
17831;DHT22;9040;51.332;12.406;2022-07-23T12:58:14;23.70;99.90
17831;DHT22;9040;51.332;12.406;2022-07-23T13:00:57;23.90;99.90
17831;DHT22;9040;51.332;12.406;2022-07-23T13:03:28;24.30;99.90
17831;DHT22;9040;51.332;12.406;2022-07-23T13:05:57;24.40;99.90
17831;DHT22;9040;51.332;12.406;2022-07-23T13:08:25;24.50;99.90
17831;DHT22;9040;51.332;12.406;2022-07-23T13:10:53;24.80;99.90
17831;DHT22;9040;51.332;12.406;2022-07-23T13:13:22;25.40;99.90
17831;DHT22;9040;51.332;12.406;2022-07-23T13:15:51;26.00;99.90
17831;DHT22;9040;51.332;12.406;2022-07-23T13:18:19;26.90;99.90
17831;DHT22;9040;51.332;12.406;2022-07-23T13:20:47;28.10;99.90
17831;DHT22;9040;51.332;12.406;2022-07-23T13:23:16;29.40;99.90
17831;DHT22;9040;51.332;12.406;2022-07-23T13:25:44;30.10;99.90
17831;DHT22;9040;51.332;12.406;2022-07-23T13:28:11;30.90;99.90
17831;DHT22;9040;51.332;12.406;2022-07-23T13:30:38;32.00;99.90
17831;DHT22;9040;51.332;12.406;2022-07-23T13:33:05;32.10;99.90
17831;DHT22;9040;51.332;12.406;2022-07-23T13:35:33;32.10;99.90
17831;DHT22;9040;51.332;12.406;2022-07-23T13:38:00;32.00;99.90
17831;DHT22;9040;51.332;12.406;2022-07-23T13:40:29;32.20;99.40
17831;DHT22;9040;51.332;12.406;2022-07-23T13:42:55;32.30;98.90
17831;DHT22;9040;51.332;12.406;2022-07-23T13:45:22;32.70;98.20
17831;DHT22;9040;51.332;12.406;2022-07-23T13:47:49;32.60;96.30
17831;DHT22;9040;51.332;12.406;2022-07-23T13:50:16;32.20;97.00
17831;DHT22;9040;51.332;12.406;2022-07-23T13:52:43;32.10;96.90
17831;DHT22;9040;51.332;12.406;2022-07-23T13:55:10;31.90;97.30
17831;DHT22;9040;51.332;12.406;2022-07-23T13:57:38;32.40;96.40
17831;DHT22;9040;51.332;12.406;2022-07-23T14:00:06;32.40;97.70
17831;DHT22;9040;51.332;12.406;2022-07-23T14:02:35;32.80;96.00
17831;DHT22;9040;51.332;12.406;2022-07-23T14:05:03;33.30;95.40
17831;DHT22;9040;51.332;12.406;2022-07-23T14:07:30;33.00;94.60
17831;DHT22;9040;51.332;12.406;2022-07-23T14:09:57;32.90;93.90
17831;DHT22;9040;51.332;12.406;2022-07-23T14:12:25;32.30;94.20
17831;DHT22;9040;51.332;12.406;2022-07-23T14:14:53;31.90;95.60
17831;DHT22;9040;51.332;12.406;2022-07-23T14:17:20;31.60;95.60
17831;DHT22;9040;51.332;12.406;2022-07-23T14:19:47;31.80;97.00
17831;DHT22;9040;51.332;12.406;2022-07-23T14:22:14;32.70;97.40
17831;DHT22;9040;51.332;12.406;2022-07-23T14:24:41;33.40;95.00
17831;DHT22;9040;51.332;12.406;2022-07-23T14:27:08;33.80;93.50
17831;DHT22;9040;51.332;12.406;2022-07-23T14:29:35;33.40;92.90
17831;DHT22;9040;51.332;12.406;2022-07-23T14:32:04;32.30;93.30
17831;DHT22;9040;51.332;12.406;2022-07-23T14:34:31;31.20;94.60
17831;DHT22;9040;51.332;12.406;2022-07-23T14:36:58;31.00;96.60
17831;DHT22;9040;51.332;12.406;2022-07-23T14:39:25;31.20;96.70
17831;DHT22;9040;51.332;12.406;2022-07-23T14:41:53;30.90;96.90
17831;DHT22;9040;51.332;12.406;2022-07-23T14:44:20;30.70;97.00
17831;DHT22;9040;51.332;12.406;2022-07-23T14:46:47;30.50;98.40
17831;DHT22;9040;51.332;12.406;2022-07-23T14:49:15;30.40;98.90
17831;DHT22;9040;51.332;12.406;2022-07-23T14:51:42;30.10;98.00
17831;DHT22;9040;51.332;12.406;2022-07-23T14:54:10;29.40;99.20
17831;DHT22;9040;51.332;12.406;2022-07-23T14:56:37;29.40;99.90
17831;DHT22;9040;51.332;12.406;2022-07-23T14:59:04;29.30;99.90
17831;DHT22;9040;51.332;12.406;2022-07-23T15:01:32;29.30;99.90
17831;DHT22;9040;51.332;12.406;2022-07-23T15:03:59;29.10;99.90
17831;DHT22;9040;51.332;12.406;2022-07-23T15:06:27;28.50;99.90
17831;DHT22;9040;51.332;12.406;2022-07-23T15:08:54;28.20;99.90
17831;DHT22;9040;51.332;12.406;2022-07-23T15:11:21;27.90;99.90
17831;DHT22;9040;51.332;12.406;2022-07-23T15:13:48;28.40;99.90
17831;DHT22;9040;51.332;12.406;2022-07-23T15:16:15;28.80;99.90
17831;DHT22;9040;51.332;12.406;2022-07-23T15:18:41;29.00;99.90
17831;DHT22;9040;51.332;12.406;2022-07-23T15:21:08;29.00;99.90
17831;DHT22;9040;51.332;12.406;2022-07-23T15:23:37;29.00;99.90
17831;DHT22;9040;51.332;12.406;2022-07-23T15:26:05;28.80;99.90
17831;DHT22;9040;51.332;12.406;2022-07-23T15:28:34;28.60;99.90
17831;DHT22;9040;51.332;12.406;2022-07-23T15:31:01;28.70;99.90
17831;DHT22;9040;51.332;12.406;2022-07-23T15:33:28;28.60;99.90
17831;DHT22;9040;51.332;12.406;2022-07-23T15:35:55;28.80;99.90
17831;DHT22;9040;51.332;12.406;2022-07-23T15:38:23;29.10;99.90
17831;DHT22;9040;51.332;12.406;2022-07-23T15:40:51;29.40;99.90
17831;DHT22;9040;51.332;12.406;2022-07-23T15:43:18;29.70;99.90
17831;DHT22;9040;51.332;12.406;2022-07-23T15:45:45;30.00;99.90